Glade Spring, Virginia
Current Conditions -  °F | °C
As of 9:55 PM on Friday 21 Nov 2014 (Local Time) from KVJI Reporting Station
Clear Clear  
Wind Chill: 21°   Ceiling: Unl
Heat Index: 30°   Visibility: 10mi
Dew Point: 16°   Wind: 9mph
Humidity: 56%   Direction: 100°E
Pressure: 30.43"   Gusts: NA
Location:  36.79°N, 81.77°W
Report Text: KVJI 220255Z AUTO 10008KT 10SM CLR M01/M09 A3043 RMK AO2 T10131090
Loading
Personal Weather Stations






























Interactive Weather Map New forecast layout! Learn more

10-Day Weather Forecast

Advertisements
Track Severe Weather on mobile